Time;durP1;ratioP1;P1;durP2;ratioP2;P2;SDS_P1;SDS_P2;PMS_P1;PMS_P2;Temp;Humidity;BMP_temperature;BMP_pressure;BME280_temperature;BME280_humidity;BME280_pressure;Samples;Min_cycle;Max_cycle;Signal;HPM_P1;HPM_P2
2022/08/24 00:00:21;;;;;;;915.45;853.85;;;;;;;22.54;61.08;101489.13;689259;28;45282;-64
2022/08/24 00:00:42;;;;;;;912.88;851.45;;;;;;;22.54;60.68;101488.25;689227;28;68421;-64
2022/08/24 00:01:04;;;;;;;921.20;859.42;;;;;;;22.54;61.05;101489.13;691567;28;22390;-63
2022/08/24 00:01:26;;;;;;;914.20;852.58;;;;;;;22.53;60.72;101484.69;687762;28;69391;-63
2022/08/24 00:01:49;;;;;;;915.33;853.63;;;;;;;22.52;60.94;101485.75;688266;28;46329;-63
2022/08/24 00:02:10;;;;;;;917.72;855.85;;;;;;;22.50;60.95;101485.16;689181;28;45325;-65
2022/08/24 00:02:31;;;;;;;914.95;853.28;;;;;;;22.52;61.06;101485.75;690102;28;24342;-63
2022/08/24 00:02:53;;;;;;;906.70;845.33;;;;;;;22.51;60.92;101492.34;690133;28;23410;-64
2022/08/24 00:03:14;;;;;;;899.08;837.92;;;;;;;22.49;61.00;101488.97;689238;28;44432;-64
2022/08/24 00:03:37;;;;;;;915.45;853.70;;;;;;;22.48;60.79;101490.06;689132;28;46315;-64
2022/08/24 00:03:58;;;;;;;902.92;841.50;;;;;;;22.48;60.75;101488.16;688799;28;44375;-64
2022/08/24 00:04:19;;;;;;;922.50;860.60;;;;;;;22.47;60.86;101493.88;690108;28;22267;-63
2022/08/24 00:04:41;;;;;;;916.70;855.00;;;;;;;22.46;60.92;101492.19;690102;28;23522;-64
2022/08/24 00:05:04;;;;;;;907.05;845.65;;;;;;;22.45;60.76;101490.53;688393;28;69717;-64
2022/08/24 00:05:25;;;;;;;910.38;848.92;;;;;;;22.42;61.17;101485.50;689292;28;33529;-63
2022/08/24 00:05:47;;;;;;;904.00;842.60;;;;;;;22.42;61.07;101488.28;689788;28;22453;-63
2022/08/24 00:06:12;;;;;;;920.10;858.17;;;;;;;22.41;61.23;101486.59;688126;28;69538;-64
2022/08/24 00:06:33;;;;;;;920.95;859.08;;;;;;;22.39;61.35;101486.00;687434;28;90352;-63
2022/08/24 00:06:55;;;;;;;912.75;850.97;;;;;;;22.37;61.25;101499.16;687761;28;46380;-63
2022/08/24 00:07:16;;;;;;;926.15;863.83;;;;;;;22.30;61.63;101489.09;689611;28;23465;-63
2022/08/24 00:07:37;;;;;;;908.33;846.85;;;;;;;22.29;61.50;101492.06;689834;28;23493;-63
2022/08/24 00:08:01;;;;;;;927.03;864.85;;;;;;;22.28;61.43;101487.63;689196;28;46345;-64
2022/08/24 00:08:22;;;;;;;921.88;859.88;;;;;;;22.29;61.53;101492.06;688408;28;69450;-64
2022/08/24 00:08:44;;;;;;;915.55;853.85;;;;;;;22.28;61.76;101490.38;689524;28;33651;-63
2022/08/24 00:09:05;;;;;;;901.25;840.00;;;;;;;22.28;61.79;101490.38;689800;28;22310;-63
2022/08/24 00:09:27;;;;;;;906.63;845.20;;;;;;;22.29;61.57;101492.88;687446;28;21527;-64
2022/08/24 00:09:49;;;;;;;904.80;843.42;;;;;;;22.28;61.62;101488.44;686736;28;69247;-64
2022/08/24 00:10:11;;;;;;;912.83;851.10;;;;;;;22.28;61.63;101491.19;690045;28;22358;-65
2022/08/24 00:10:35;;;;;;;922.30;860.35;;;;;;;22.27;61.51;101489.53;686936;28;45256;-64
2022/08/24 00:10:56;;;;;;;929.13;866.88;;;;;;;22.27;61.71;101488.69;686671;28;92052;-64
2022/08/24 00:11:18;;;;;;;926.67;864.50;;;;;;;22.27;61.65;101495.03;690017;28;21366;-64
2022/08/24 00:11:39;;;;;;;914.67;852.97;;;;;;;22.27;61.57;101494.19;689250;28;46312;-64
2022/08/24 00:12:03;;;;;;;918.85;856.97;;;;;;;22.27;61.90;101495.03;691106;28;21154;-64
2022/08/24 00:12:24;;;;;;;910.95;849.38;;;;;;;22.26;61.59;101496.13;690465;28;92150;-64
2022/08/24 00:12:46;;;;;;;932.65;870.40;;;;;;;22.26;61.80;101487.03;692040;28;44362;-61
2022/08/24 00:13:08;;;;;;;925.78;863.67;;;;;;;22.25;62.00;101493.59;690144;28;23430;-64
2022/08/24 00:13:30;;;;;;;915.45;853.75;;;;;;;22.25;61.72;101497.19;689325;28;46113;-64
2022/08/24 00:13:52;;;;;;;910.70;849.15;;;;;;;22.24;61.62;101486.41;689047;28;46313;-65
2022/08/24 00:14:13;;;;;;;915.05;853.35;;;;;;;22.24;61.70;101486.41;689280;28;46453;-64
2022/08/24 00:14:35;;;;;;;920.03;858.22;;;;;;;22.23;61.56;101485.56;689367;28;37779;-64
2022/08/24 00:14:56;;;;;;;912.47;850.90;;;;;;;22.23;61.61;101485.56;690046;28;22394;-64
2022/08/24 00:15:18;;;;;;;926.53;864.53;;;;;;;22.24;61.64;101486.41;689979;28;22356;-65
2022/08/24 00:15:40;;;;;;;902.75;841.47;;;;;;;22.24;61.79;101483.66;689253;28;44357;-64
2022/08/24 00:16:01;;;;;;;913.03;851.40;;;;;;;22.23;61.87;101484.75;688941;28;46294;-64
2022/08/24 00:16:23;;;;;;;914.42;852.75;;;;;;;22.23;61.89;101485.56;689319;28;46220;-64
2022/08/24 00:16:44;;;;;;;914.75;853.10;;;;;;;22.20;61.84;101482.47;689116;28;22391;-64
2022/08/24 00:17:06;;;;;;;926.50;864.28;;;;;;;22.23;61.99;101480.06;689300;28;21329;-63
2022/08/24 00:17:28;;;;;;;904.42;843.05;;;;;;;22.24;61.83;101483.66;688330;28;67456;-64
2022/08/24 00:17:49;;;;;;;922.17;860.13;;;;;;;22.25;62.02;101488.91;689534;28;23501;-64
2022/08/24 00:18:10;;;;;;;927.40;865.00;;;;;;;22.26;62.11;101487.84;692473;28;21231;-64
2022/08/24 00:18:32;;;;;;;921.53;859.53;;;;;;;22.26;61.88;101482.34;691933;28;46273;-63
2022/08/24 00:18:54;;;;;;;922.63;860.53;;;;;;;22.26;61.95;101482.34;692496;28;21544;-64
2022/08/24 00:19:16;;;;;;;928.13;865.80;;;;;;;22.27;61.88;101478.53;691167;28;69497;-64
2022/08/24 00:19:37;;;;;;;927.72;865.58;;;;;;;22.28;61.89;101479.38;692781;28;23415;-64
2022/08/24 00:19:59;;;;;;;922.00;860.00;;;;;;;22.29;61.71;101481.88;692607;28;22539;-64
2022/08/24 00:20:21;;;;;;;930.63;868.33;;;;;;;22.29;61.93;101481.88;691859;28;46316;-64
2022/08/24 00:20:42;;;;;;;936.13;873.72;;;;;;;22.28;61.97;101477.44;689831;28;46386;-64
2022/08/24 00:21:03;;;;;;;930.60;868.22;;;;;;;22.31;62.09;101484.44;689830;28;21535;-64
2022/08/24 00:21:25;;;;;;;922.90;860.85;;;;;;;22.31;62.01;101484.44;690155;28;18161;-64
2022/08/24 00:21:47;;;;;;;937.47;875.00;;;;;;;22.31;61.60;101468.75;685954;28;70160;-64
2022/08/24 00:22:09;;;;;;;932.72;870.40;;;;;;;22.31;62.04;101477.00;691431;28;21384;-63
2022/08/24 00:22:30;;;;;;;931.97;869.75;;;;;;;22.33;61.92;101486.94;691941;28;46290;-64
2022/08/24 00:22:52;;;;;;;924.20;862.28;;;;;;;22.30;61.89;101480.84;690936;28;23593;-64
2022/08/24 00:23:14;;;;;;;916.13;854.35;;;;;;;22.30;61.92;101491.00;689203;28;45364;-64
2022/08/24 00:23:35;;;;;;;920.58;858.75;;;;;;;22.29;61.91;101481.88;689254;28;44552;-65
2022/08/24 00:23:58;;;;;;;931.88;869.65;;;;;;;22.30;61.93;101482.75;689163;28;46324;-64
2022/08/24 00:24:19;;;;;;;921.65;859.72;;;;;;;22.30;61.81;101485.50;689022;28;45248;-64
2022/08/24 00:24:40;;;;;;;926.40;864.30;;;;;;;22.29;61.83;101484.63;690078;28;21410;-65
2022/08/24 00:25:02;;;;;;;930.47;868.23;;;;;;;22.29;62.00;101486.56;689408;28;22378;-65
2022/08/24 00:25:25;;;;;;;923.70;861.53;;;;;;;22.31;61.95;101484.44;687842;28;68398;-63
2022/08/24 00:25:47;;;;;;;925.97;863.83;;;;;;;22.33;61.89;101489.69;689012;28;46327;-64
2022/08/24 00:26:09;;;;;;;928.45;866.20;;;;;;;22.34;61.87;101488.63;688237;28;45488;-64
2022/08/24 00:26:30;;;;;;;931.63;869.22;;;;;;;22.34;61.69;101485.88;690446;28;1858;-64
2022/08/24 00:26:53;;;;;;;922.60;860.50;;;;;;;22.34;61.85;101489.47;688774;28;23429;-64
2022/08/24 00:27:14;;;;;;;918.65;856.42;;;;;;;22.35;61.96;101495.78;688026;28;69324;-64
2022/08/24 00:27:36;;;;;;;925.28;863.03;;;;;;;22.35;61.94;101493.91;689270;28;46229;-65
2022/08/24 00:27:58;;;;;;;933.75;871.25;;;;;;;22.36;61.73;101491.97;689546;28;21520;-65
2022/08/24 00:28:19;;;;;;;933.40;870.95;;;;;;;22.37;61.75;101496.41;685824;28;46290;-64
2022/08/24 00:28:42;;;;;;;925.00;862.83;;;;;;;22.34;61.80;101485.88;682967;28;46333;-64
2022/08/24 00:29:03;;;;;;;937.85;875.15;;;;;;;22.37;61.80;101490.91;682661;28;46267;-65
2022/08/24 00:29:24;;;;;;;933.08;870.55;;;;;;;22.38;61.71;101495.31;684347;28;19018;-64
2022/08/24 00:29:46;;;;;;;925.92;863.72;;;;;;;22.38;61.65;101498.06;684244;28;46462;-63
2022/08/24 00:30:10;;;;;;;931.15;868.70;;;;;;;22.35;61.82;101482.03;684453;28;22468;-64
2022/08/24 00:30:33;;;;;;;937.03;874.58;;;;;;;22.38;61.56;101498.06;684672;28;92258;-64
2022/08/24 00:30:55;;;;;;;929.20;866.90;;;;;;;22.38;61.41;101493.41;684679;28;92270;-64
2022/08/24 00:31:16;;;;;;;928.42;866.13;;;;;;;22.37;61.75;101501.91;683777;28;22392;-63
2022/08/24 00:31:38;;;;;;;934.72;872.25;;;;;;;22.39;61.66;101499.75;685471;28;23572;-64
2022/08/24 00:31:59;;;;;;;938.33;875.70;;;;;;;22.38;61.72;101492.56;683659;28;46369;-64
2022/08/24 00:32:21;;;;;;;927.92;865.63;;;;;;;22.40;61.67;101502.28;687090;28;23532;-63
2022/08/24 00:32:45;;;;;;;927.08;864.90;;;;;;;22.39;61.86;101497.00;687380;28;13618;-64
2022/08/24 00:33:07;;;;;;;923.08;860.95;;;;;;;22.38;61.84;101487.91;683423;28;69490;-65
2022/08/24 00:33:28;;;;;;;919.28;857.28;;;;;;;22.41;61.70;101500.34;683611;28;46393;-63
2022/08/24 00:33:49;;;;;;;919.88;857.83;;;;;;;22.41;61.71;101492.91;685129;28;22376;-64
2022/08/24 00:34:12;;;;;;;931.13;868.60;;;;;;;22.41;61.62;101497.59;686718;28;21175;-64
2022/08/24 00:34:34;;;;;;;926.60;864.42;;;;;;;22.41;61.64;101498.41;685532;28;69424;-63
2022/08/24 00:34:55;;;;;;;925.25;863.10;;;;;;;22.42;61.53;101491.03;686890;28;47564;-64
2022/08/24 00:35:18;;;;;;;930.25;867.85;;;;;;;22.41;61.76;101500.34;687602;28;21542;-64
2022/08/24 00:35:39;;;;;;;931.80;869.42;;;;;;;22.42;61.52;101502.03;687848;28;69274;-62
2022/08/24 00:36:02;;;;;;;930.08;867.63;;;;;;;22.42;61.50;101499.28;686585;28;22504;-64
2022/08/24 00:36:23;;;;;;;931.70;869.25;;;;;;;22.42;61.56;101491.03;685435;28;69387;-64
2022/08/24 00:36:45;;;;;;;927.13;864.88;;;;;;;22.42;61.46;101499.28;682373;28;23282;-64
2022/08/24 00:37:06;;;;;;;935.30;872.50;;;;;;;22.42;61.63;101493.78;678293;29;47158;-64
2022/08/24 00:37:28;;;;;;;922.28;860.10;;;;;;;22.42;61.53;101491.03;681964;28;22393;-64
2022/08/24 00:37:51;;;;;;;914.75;852.95;;;;;;;22.42;61.45;101491.84;681595;28;46100;-64
2022/08/24 00:38:13;;;;;;;926.88;864.47;;;;;;;22.42;61.65;101502.03;679494;28;69418;-64
2022/08/24 00:38:35;;;;;;;926.30;864.15;;;;;;;22.44;61.61;101497.13;680995;29;44380;-64
2022/08/24 00:38:56;;;;;;;932.53;870.10;;;;;;;22.42;61.84;101491.84;679223;29;46299;-63
2022/08/24 00:39:19;;;;;;;929.20;866.70;;;;;;;22.43;61.49;101493.53;681482;29;22349;-64
2022/08/24 00:39:41;;;;;;;920.22;858.22;;;;;;;22.44;61.47;101503.44;677738;29;69375;-63
2022/08/24 00:40:03;;;;;;;926.60;864.33;;;;;;;22.44;61.40;101489.69;676415;28;45005;-65
2022/08/24 00:40:27;;;;;;;931.22;868.80;;;;;;;22.46;61.51;101497.69;680980;29;44364;-64
2022/08/24 00:40:51;;;;;;;925.50;863.40;;;;;;;22.45;61.68;101496.88;676913;29;92262;-63
2022/08/24 00:41:22;;;;;;;925.55;863.20;;;;;;;22.45;61.60;101496.06;679252;28;98542;-64
2022/08/24 00:41:46;;;;;;;932.63;870.22;;;;;;;22.46;61.31;101497.69;682820;28;22401;-64
2022/08/24 00:42:07;;;;;;;935.20;872.60;;;;;;;22.46;61.53;101494.94;684588;28;92299;-64
2022/08/24 00:42:29;;;;;;;937.17;874.60;;;;;;;22.45;61.59;101496.88;687136;28;22146;-64
2022/08/24 00:42:51;;;;;;;921.92;859.85;;;;;;;22.45;61.35;101496.88;686368;28;44169;-63
2022/08/24 00:43:12;;;;;;;930.15;867.67;;;;;;;22.45;61.53;101501.56;686244;28;46287;-65
2022/08/24 00:43:33;;;;;;;930.58;868.22;;;;;;;22.44;61.48;101502.63;687227;28;22309;-64
2022/08/24 00:43:57;;;;;;;935.20;872.67;;;;;;;22.42;61.50;101500.09;686955;28;21614;-64
2022/08/24 00:44:20;;;;;;;936.03;873.45;;;;;;;22.42;61.44;101502.84;684923;28;92291;-65
2022/08/24 00:44:41;;;;;;;927.45;865.28;;;;;;;22.42;61.25;101499.28;685135;28;69167;-65
2022/08/24 00:45:04;;;;;;;934.90;872.38;;;;;;;22.42;61.50;101502.03;684117;28;22388;-63
2022/08/24 00:45:25;;;;;;;924.95;862.75;;;;;;;22.40;61.50;101496.75;684193;28;32555;-65
2022/08/24 00:46:01;;;;;;;925.95;863.78;;;;;;;22.40;61.76;101501.41;684350;28;22399;-64
2022/08/24 00:46:27;;;;;;;930.10;867.83;;;;;;;22.37;61.75;101499.16;680464;28;135883;-63
2022/08/24 00:46:52;;;;;;;932.97;870.58;;;;;;;22.36;61.50;101494.72;682572;28;136404;-63
2022/08/24 00:47:19;;;;;;;938.67;875.75;;;;;;;22.34;61.73;101497.72;683119;28;116392;-65
2022/08/24 00:47:42;;;;;;;921.60;859.45;;;;;;;22.33;61.63;101492.44;680705;28;136365;-64
2022/08/24 00:48:08;;;;;;;925.20;863.03;;;;;;;22.30;61.63;101500.09;679967;29;70202;-64
2022/08/24 00:48:31;;;;;;;938.05;875.45;;;;;;;22.28;61.47;101493.94;677922;29;138196;-65
2022/08/24 00:49:03;;;;;;;927.88;865.55;;;;;;;22.28;61.57;101501.38;677213;29;69668;-64
2022/08/24 00:49:30;;;;;;;910.15;848.40;;;;;;;22.26;61.86;101498.03;675099;29;137309;-64
2022/08/24 00:49:54;;;;;;;925.33;863.05;;;;;;;22.24;62.15;101490.00;675660;29;137965;-63
2022/08/24 00:50:18;;;;;;;928.45;866.20;;;;;;;22.23;61.79;101490.25;676682;29;90689;-65
2022/08/24 00:50:42;;;;;;;918.92;856.95;;;;;;;22.22;61.76;101491.31;677262;29;91283;-65
2022/08/24 00:51:08;;;;;;;929.42;867.08;;;;;;;22.20;61.72;101494.31;679304;29;92297;-64
2022/08/24 00:51:35;;;;;;;919.40;857.47;;;;;;;22.20;61.71;101498.97;677621;29;138682;-64
2022/08/24 00:52:03;;;;;;;924.05;861.85;;;;;;;22.19;62.18;101498.13;676880;28;136141;-64
2022/08/24 00:52:28;;;;;;;928.78;866.55;;;;;;;22.17;62.20;101491.19;680497;28;137899;-64
2022/08/24 00:52:55;;;;;;;934.58;872.05;;;;;;;22.18;62.49;101493.72;681089;28;115849;-64
2022/08/24 00:53:23;;;;;;;922.85;860.65;;;;;;;22.20;62.34;101488.81;679687;28;159028;-64
2022/08/24 00:53:50;;;;;;;930.15;867.85;;;;;;;22.19;62.14;101491.78;680502;28;137945;-63
2022/08/24 00:54:13;;;;;;;928.03;865.72;;;;;;;22.21;62.27;101497.88;680452;28;138080;-63
2022/08/24 00:54:38;;;;;;;937.15;873.80;;;;;;;22.20;62.18;101497.06;681007;28;69423;-64
2022/08/24 00:55:04;;;;;;;926.47;864.17;;;;;;;22.18;62.37;101499.22;681415;28;115600;-63
2022/08/24 00:55:34;;;;;;;937.70;875.03;;;;;;;22.14;62.17;101496.06;680377;28;136432;-62
2022/08/24 00:55:59;;;;;;;917.88;855.80;;;;;;;22.13;62.14;101491.66;683147;28;136104;-64
2022/08/24 00:56:24;;;;;;;922.65;860.45;;;;;;;22.13;62.40;101493.56;683895;28;115317;-64
2022/08/24 00:56:50;;;;;;;920.63;858.58;;;;;;;22.12;62.25;101502.91;680495;28;115515;-64
2022/08/24 00:57:12;;;;;;;935.72;872.85;;;;;;;22.11;62.50;101495.72;679819;28;137959;-63
2022/08/24 00:57:38;;;;;;;932.88;870.35;;;;;;;22.07;62.33;101495.38;683574;28;46323;-64
2022/08/24 00:58:03;;;;;;;928.95;866.50;;;;;;;22.08;62.58;101498.94;677907;28;138009;-64
2022/08/24 00:58:29;;;;;;;940.60;877.88;;;;;;;22.07;62.38;101495.38;681158;28;113684;-64
2022/08/24 00:58:54;;;;;;;927.35;865.05;;;;;;;22.04;62.65;101495.00;683068;28;137989;-64
2022/08/24 00:59:17;;;;;;;934.35;871.83;;;;;;;22.03;62.51;101496.06;683824;28;115873;-64
2022/08/24 00:59:42;;;;;;;926.83;864.47;;;;;;;22.03;62.57;101496.06;685230;28;67393;-65
2022/08/24 01:00:08;;;;;;;934.10;871.40;;;;;;;22.03;62.54;101496.06;684780;28;92303;-64
2022/08/24 01:00:34;;;;;;;930.42;868.08;;;;;;;22.02;62.64;101498.00;683245;28;136318;-64
2022/08/24 01:00:57;;;;;;;930.83;868.53;;;;;;;21.99;62.51;101490.22;683083;28;136427;-63
2022/08/24 01:01:19;;;;;;;933.92;871.33;;;;;;;22.02;62.70;101498.00;684824;28;69257;-62
2022/08/24 01:01:43;;;;;;;933.58;871.13;;;;;;;21.98;62.43;101494.03;682696;28;45466;-64
2022/08/24 01:02:09;;;;;;;928.65;866.33;;;;;;;22.01;62.79;101504.56;680468;28;112177;-65
2022/08/24 01:02:33;;;;;;;934.50;872.05;;;;;;;22.01;62.81;101499.06;677454;29;137948;-64
2022/08/24 01:03:00;;;;;;;931.78;869.45;;;;;;;22.02;62.71;101499.88;679316;29;90360;-64
2022/08/24 01:03:21;;;;;;;918.10;856.10;;;;;;;21.99;62.83;101497.59;679173;28;136488;-64
2022/08/24 01:03:45;;;;;;;937.78;875.25;;;;;;;22.01;62.72;101499.06;684026;28;22412;-64
2022/08/24 01:04:07;;;;;;;935.33;872.70;;;;;;;22.02;62.81;101502.63;681690;28;92297;-64
2022/08/24 01:04:33;;;;;;;932.72;870.30;;;;;;;22.02;62.96;101495.25;685568;28;45255;-64
2022/08/24 01:04:57;;;;;;;937.90;875.25;;;;;;;22.03;62.50;101507.06;682684;28;138104;-64
2022/08/24 01:05:18;;;;;;;938.67;875.92;;;;;;;22.02;62.69;101495.25;684366;28;92377;-63
2022/08/24 01:05:40;;;;;;;924.42;862.17;;;;;;;22.00;62.60;101493.78;687154;28;21284;-65
2022/08/24 01:06:02;;;;;;;932.42;869.90;;;;;;;22.02;62.96;101505.38;686262;28;47273;-64
2022/08/24 01:06:24;;;;;;;925.58;863.38;;;;;;;22.03;62.82;101501.56;686450;28;39647;-63
2022/08/24 01:06:48;;;;;;;923.17;861.05;;;;;;;22.03;62.78;101507.06;683744;28;22411;-64
2022/08/24 01:07:09;;;;;;;931.95;869.25;;;;;;;22.03;62.61;101502.41;681199;28;92244;-64
2022/08/24 01:07:32;;;;;;;924.55;862.22;;;;;;;22.04;62.68;101500.50;681869;28;23304;-64
2022/08/24 01:07:54;;;;;;;930.20;867.80;;;;;;;22.03;62.44;101501.56;677637;29;69466;-63
2022/08/24 01:08:15;;;;;;;926.35;864.03;;;;;;;22.03;62.80;101496.06;679146;29;45245;-64
2022/08/24 01:08:38;;;;;;;925.75;863.47;;;;;;;22.02;62.87;101492.50;682718;28;23475;-64
2022/08/24 01:09:00;;;;;;;932.25;869.75;;;;;;;22.02;62.67;101502.63;678639;29;35791;-65
2022/08/24 01:09:22;;;;;;;936.70;874.08;;;;;;;22.02;62.81;101500.75;676559;29;43678;-64
2022/08/24 01:09:43;;;;;;;925.00;862.88;;;;;;;22.01;62.92;101498.22;679045;29;47692;-65
2022/08/24 01:10:07;;;;;;;898.85;837.47;;;;;;;21.99;62.68;101500.34;681381;28;23470;-63
2022/08/24 01:10:32;;;;;;;924.70;862.40;;;;;;;22.01;63.00;101500.97;679587;28;92010;-64
2022/08/24 01:11:00;;;;;;;909.92;848.42;;;;;;;22.01;62.82;101509.22;678470;29;114807;-63
2022/08/24 01:11:23;;;;;;;904.13;842.80;;;;;;;22.01;62.59;101500.97;680039;28;136280;-64
2022/08/24 01:11:45;;;;;;;916.30;854.50;;;;;;;22.00;62.79;101499.28;681972;28;69385;-64
2022/08/24 01:12:07;;;;;;;912.72;851.03;;;;;;;21.99;62.72;101500.34;683430;28;46503;-62
2022/08/24 01:12:32;;;;;;;928.67;866.28;;;;;;;21.99;62.63;101500.34;685772;28;46220;-65
2022/08/24 01:13:00;;;;;;;935.25;872.65;;;;;;;21.98;62.74;101501.44;685664;28;61423;-64
2022/08/24 01:13:22;;;;;;;938.70;875.90;;;;;;;21.96;62.84;101502.50;684561;28;92174;-64
2022/08/24 01:13:46;;;;;;;933.55;870.97;;;;;;;21.96;62.84;101497.00;686241;28;47259;-65
2022/08/24 01:14:08;;;;;;;932.97;870.38;;;;;;;21.96;62.71;101499.75;684083;28;90293;-64
2022/08/24 01:14:29;;;;;;;928.45;866.10;;;;;;;21.93;62.87;101493.91;683627;28;44029;-63
2022/08/24 01:14:51;;;;;;;942.03;879.25;;;;;;;21.96;62.69;101496.19;684182;28;23429;-64
2022/08/24 01:15:14;;;;;;;938.92;876.20;;;;;;;21.96;62.94;101499.75;680566;29;45272;-64
2022/08/24 01:15:39;;;;;;;934.88;872.25;;;;;;;21.97;62.84;101503.34;680073;29;69379;-64
2022/08/24 01:16:03;;;;;;;938.35;875.70;;;;;;;21.98;62.75;101501.44;679733;28;115287;-64
2022/08/24 01:19:16;;;;;;;928.97;866.50;;;;;;;21.99;62.91;101500.34;679943;28;135586;-63
2022/08/24 01:19:44;;;;;;;937.50;874.85;;;;;;;22.00;62.86;101504.78;680483;28;138589;-65
2022/08/24 01:20:08;;;;;;;926.58;864.20;;;;;;;21.98;62.69;101504.19;677263;29;136005;-64
2022/08/24 01:20:29;;;;;;;939.05;876.25;;;;;;;21.96;62.92;101498.94;678258;29;92247;-64
2022/08/24 01:20:58;;;;;;;921.78;859.47;;;;;;;21.98;63.16;101498.69;681516;29;22219;-64
2022/08/24 01:21:23;;;;;;;915.67;853.53;;;;;;;22.00;62.80;101497.38;680588;28;137888;-64
2022/08/24 01:21:51;;;;;;;933.20;870.67;;;;;;;22.02;62.78;101495.25;680217;28;116509;-64
2022/08/24 01:22:40;;;;;;;923.70;861.40;;;;;;;22.02;62.97;101502.63;683076;28;137821;-64
2022/08/24 01:23:07;;;;;;;929.20;866.73;;;;;;;22.00;62.64;101502.88;682676;28;137726;-65
2022/08/24 01:23:37;;;;;;;923.85;861.60;;;;;;;22.04;62.70;101503.25;683031;28;137507;-64
2022/08/24 01:24:00;;;;;;;920.55;858.38;;;;;;;22.03;62.56;101496.06;680207;28;137903;-64
2022/08/24 01:24:21;;;;;;;912.67;850.83;;;;;;;22.03;62.62;101496.91;682864;28;67449;-65
2022/08/24 01:24:43;;;;;;;921.95;859.78;;;;;;;22.05;62.50;101502.16;685019;28;834;-64
2022/08/24 01:25:06;;;;;;;910.55;848.70;;;;;;;22.04;62.60;101501.34;680718;28;46340;-63
2022/08/24 01:25:29;;;;;;;895.85;834.55;;;;;;;22.04;62.54;101504.09;679479;29;69405;-64
2022/08/24 01:25:50;;;;;;;912.22;850.40;;;;;;;22.06;62.65;101503.84;678777;29;67330;-64
2022/08/24 01:26:17;;;;;;;911.00;849.13;;;;;;;22.04;62.75;101500.50;678872;29;23439;-63
2022/08/24 01:26:41;;;;;;;918.38;856.33;;;;;;;22.04;62.25;101498.59;675330;29;138012;-63
2022/08/24 01:27:04;;;;;;;899.65;838.20;;;;;;;22.05;62.54;101508.53;676438;29;112198;-64
2022/08/24 01:27:25;;;;;;;899.83;838.77;;;;;;;22.04;62.39;101495.00;679428;29;70313;-64
2022/08/24 01:27:47;;;;;;;902.72;841.72;;;;;;;22.02;62.29;101498.00;682535;28;46363;-64
2022/08/24 01:28:13;;;;;;;895.88;835.05;;;;;;;22.01;62.24;101498.22;682461;28;46316;-64
2022/08/24 01:28:36;;;;;;;899.40;838.60;;;;;;;22.01;62.48;101506.47;680501;28;138018;-64
2022/08/24 01:29:02;;;;;;;911.33;850.03;;;;;;;21.99;62.35;101503.09;682539;28;69400;-64
2022/08/24 01:29:26;;;;;;;919.00;857.47;;;;;;;21.95;62.39;101494.50;681812;28;159611;-65
2022/08/24 01:29:50;;;;;;;913.35;851.97;;;;;;;21.96;62.54;101493.44;684618;28;92220;-64
2022/08/24 01:30:14;;;;;;;898.60;837.58;;;;;;;21.94;62.51;101503.81;683719;28;113614;-64
2022/08/24 01:30:36;;;;;;;920.67;858.90;;;;;;;21.92;62.68;101501.28;682708;28;68269;-64
2022/08/24 01:30:57;;;;;;;916.55;854.90;;;;;;;21.93;62.88;101499.41;678241;29;43561;-64
2022/08/24 01:31:20;;;;;;;893.97;833.00;;;;;;;21.91;62.74;101496.03;679067;29;22374;-63
2022/08/24 01:31:43;;;;;;;912.90;851.40;;;;;;;21.90;62.59;101492.44;673313;29;90284;-65
2022/08/24 01:32:05;;;;;;;929.35;867.25;;;;;;;21.90;62.44;101499.88;676516;29;46302;-64
2022/08/24 01:32:26;;;;;;;920.65;858.90;;;;;;;21.88;62.61;101504.72;676656;29;46690;-63
2022/08/24 01:32:54;;;;;;;909.50;848.03;;;;;;;21.86;62.65;101504.16;678131;29;22396;-64
2022/08/24 01:33:23;;;;;;;879.08;818.50;;;;;;;21.83;62.60;101499.94;674955;29;137937;-64
2022/08/24 01:33:48;;;;;;;937.95;875.28;;;;;;;21.80;62.85;101502.31;674907;29;138768;-64
2022/08/24 01:34:10;;;;;;;932.55;870.05;;;;;;;21.76;62.99;101504.72;673379;29;115120;-64
2022/08/24 01:34:31;;;;;;;937.25;874.67;;;;;;;21.74;63.24;101504.94;678040;29;46270;-64
2022/08/24 01:34:54;;;;;;;939.63;876.92;;;;;;;21.71;63.58;101510.06;678366;29;46268;-65
2022/08/24 01:35:15;;;;;;;937.53;874.83;;;;;;;21.69;63.23;101507.56;677610;29;45297;-64
2022/08/24 01:35:38;;;;;;;930.25;867.80;;;;;;;21.69;63.31;101498.44;677694;29;22423;-64
2022/08/24 01:36:02;;;;;;;932.17;869.63;;;;;;;21.69;63.22;101499.31;675837;29;69421;-64
2022/08/24 01:36:27;;;;;;;932.55;870.15;;;;;;;21.68;63.33;101499.53;676069;29;114890;-64
2022/08/24 01:36:53;;;;;;;922.28;860.10;;;;;;;21.71;63.38;101504.59;675046;28;92111;-64
2022/08/24 01:37:15;;;;;;;949.28;885.88;;;;;;;21.71;63.39;101505.41;679779;28;136291;-65
2022/08/24 01:37:36;;;;;;;932.08;869.63;;;;;;;21.71;63.28;101505.41;683961;28;23485;-63
2022/08/24 01:38:01;;;;;;;931.78;869.33;;;;;;;21.73;63.30;101507.94;684352;28;22256;-65
2022/08/24 01:38:24;;;;;;;935.13;872.55;;;;;;;21.74;63.38;101502.19;680341;28;115120;-62
2022/08/24 01:38:47;;;;;;;945.15;882.25;;;;;;;21.68;63.35;101492.13;682253;28;70257;-64
2022/08/24 01:39:10;;;;;;;934.67;872.03;;;;;;;21.75;63.15;101503.03;681694;28;70404;-63
2022/08/24 01:39:34;;;;;;;924.78;862.55;;;;;;;21.75;63.33;101503.84;682694;28;69369;-65
2022/08/24 01:39:57;;;;;;;930.42;867.92;;;;;;;21.75;63.08;101508.53;681736;28;92244;-63
2022/08/24 01:40:19;;;;;;;928.00;865.55;;;;;;;21.73;63.41;101496.94;679777;29;67468;-65
2022/08/24 01:40:43;;;;;;;929.17;866.78;;;;;;;21.72;63.29;101493.34;679882;29;46328;-64
2022/08/24 01:41:06;;;;;;;935.78;873.08;;;;;;;21.73;63.11;101502.44;677669;29;136176;-63
2022/08/24 01:41:27;;;;;;;938.53;875.72;;;;;;;21.74;63.28;101507.69;681839;28;21407;-64
2022/08/24 01:41:50;;;;;;;922.97;860.67;;;;;;;21.74;62.93;101507.69;679918;28;46302;-64
2022/08/24 01:42:13;;;;;;;926.50;864.03;;;;;;;21.74;63.24;101504.94;679692;29;45264;-64
2022/08/24 01:42:35;;;;;;;936.72;874.13;;;;;;;21.74;63.27;101509.59;678487;29;92194;-64
2022/08/24 01:42:56;;;;;;;933.63;871.05;;;;;;;21.72;63.03;101500.75;681723;29;22247;-63
2022/08/24 01:43:21;;;;;;;922.22;860.05;;;;;;;21.71;63.07;101501.84;677580;29;67282;-63
2022/08/24 01:43:43;;;;;;;931.25;868.78;;;;;;;21.71;63.14;101499.91;674307;29;92123;-64
2022/08/24 01:44:04;;;;;;;930.83;868.38;;;;;;;21.71;63.23;101505.41;677381;29;22178;-65
2022/08/24 01:44:28;;;;;;;928.78;866.35;;;;;;;21.70;63.01;101500.16;679042;29;44148;-64
2022/08/24 01:44:51;;;;;;;932.78;870.22;;;;;;;21.71;63.04;101504.59;679418;28;92272;-65
2022/08/24 01:45:13;;;;;;;928.60;866.08;;;;;;;21.69;63.21;101504.81;679439;29;45242;-64
2022/08/24 01:45:36;;;;;;;926.83;864.53;;;;;;;21.69;63.25;101509.44;679935;29;67252;-64
2022/08/24 01:45:58;;;;;;;934.75;872.15;;;;;;;21.69;63.15;101504.81;677387;29;69300;-65
2022/08/24 01:46:20;;;;;;;936.88;874.15;;;;;;;21.68;63.20;101503.13;679068;29;21501;-65
2022/08/24 01:46:48;;;;;;;931.30;868.83;;;;;;;21.68;63.25;101502.28;678554;28;60902;-64